createdAt,value
2023-01-13T00:01:13.923Z,3.46
2023-01-13T00:04:20.619Z,3.27
2023-01-13T00:07:26.487Z,3.40
2023-01-13T00:10:36.258Z,3.28
2023-01-13T00:13:42.137Z,3.14
2023-01-13T00:16:49.114Z,3.00
2023-01-13T00:19:55.223Z,2.88
2023-01-13T00:23:02.227Z,3.16
2023-01-13T00:26:14.926Z,2.87
2023-01-13T00:29:21.642Z,3.10
2023-01-13T00:32:27.549Z,3.06
2023-01-13T00:35:34.147Z,3.00
2023-01-13T00:38:43.259Z,3.27
2023-01-13T00:42:04.964Z,2.81
2023-01-13T00:45:11.667Z,3.00
2023-01-13T00:48:18.295Z,2.85
2023-01-13T00:51:25.331Z,2.99
2023-01-13T00:54:31.837Z,3.68
2023-01-13T00:57:40.637Z,3.59
2023-01-13T01:00:47.260Z,4.02
2023-01-13T01:03:55.687Z,3.44
2023-01-13T01:07:02.316Z,2.96
2023-01-13T01:10:09.639Z,2.87
2023-01-13T01:13:18.871Z,2.98
2023-01-13T01:16:28.606Z,2.99
2023-01-13T01:19:37.552Z,2.96
2023-01-13T01:22:43.349Z,2.78
2023-01-13T01:25:49.986Z,2.57
2023-01-13T01:28:59.609Z,2.61
2023-01-13T01:32:06.266Z,2.73
2023-01-13T01:35:12.804Z,2.83
2023-01-13T01:38:21.458Z,2.98
2023-01-13T01:41:31.843Z,2.82
2023-01-13T01:44:59.855Z,3.02
2023-01-13T01:48:10.245Z,3.09
2023-01-13T01:51:17.720Z,3.32
2023-01-13T01:54:31.689Z,3.15
2023-01-13T01:57:49.142Z,3.10
2023-01-13T02:00:57.814Z,3.30
2023-01-13T02:04:15.735Z,3.21
2023-01-13T02:07:26.461Z,3.17
2023-01-13T02:10:35.603Z,3.39
2023-01-13T02:13:41.690Z,3.74
2023-01-13T02:17:14.040Z,3.77
2023-01-13T02:20:56.870Z,3.82
2023-01-13T02:25:01.704Z,4.31
2023-01-13T02:29:10.079Z,4.67
2023-01-13T02:32:30.808Z,4.81
2023-01-13T02:35:51.099Z,4.48
2023-01-13T02:39:10.777Z,4.71
2023-01-13T02:42:42.629Z,4.98
2023-01-13T02:46:00.580Z,4.53
2023-01-13T02:49:30.620Z,4.51
2023-01-13T02:52:43.939Z,4.63
2023-01-13T02:55:56.796Z,4.92
2023-01-13T02:59:07.450Z,5.05
2023-01-13T03:02:22.993Z,5.01
2023-01-13T03:05:37.509Z,5.26
2023-01-13T03:08:57.390Z,5.74
2023-01-13T03:12:19.068Z,5.96
2023-01-13T03:15:40.866Z,5.31
2023-01-13T03:19:10.253Z,5.88
2023-01-13T03:22:32.761Z,6.24
2023-01-13T03:25:48.885Z,6.11
2023-01-13T03:29:08.176Z,5.63
2023-01-13T03:32:26.017Z,5.73
2023-01-13T03:35:41.121Z,5.42
2023-01-13T03:38:59.461Z,6.19
2023-01-13T03:42:15.978Z,6.30
2023-01-13T03:45:21.851Z,6.56
2023-01-13T03:48:34.363Z,6.55
2023-01-13T03:51:50.742Z,6.46
2023-01-13T03:55:10.740Z,6.52
2023-01-13T03:58:26.364Z,6.00
2023-01-13T04:01:45.425Z,5.65
2023-01-13T04:04:59.636Z,5.38
2023-01-13T04:08:21.094Z,5.31
2023-01-13T04:11:41.873Z,5.34
2023-01-13T04:14:49.725Z,5.13
2023-01-13T04:17:56.378Z,5.18
2023-01-13T04:21:05.094Z,5.40
2023-01-13T04:24:12.557Z,5.76
2023-01-13T04:27:21.833Z,6.02
2023-01-13T04:30:27.640Z,6.84
2023-01-13T04:33:34.166Z,8.63
2023-01-13T04:36:40.286Z,7.60
2023-01-13T04:39:46.899Z,7.06
2023-01-13T04:42:58.515Z,7.58
2023-01-13T04:46:05.166Z,7.37
2023-01-13T04:49:10.918Z,8.21
2023-01-13T04:52:17.599Z,8.52
2023-01-13T04:55:26.068Z,8.50
2023-01-13T04:58:35.388Z,7.93
2023-01-13T05:01:42.387Z,8.20
2023-01-13T05:04:49.735Z,8.07
2023-01-13T05:07:55.759Z,8.33
2023-01-13T05:11:23.687Z,8.40
2023-01-13T05:14:44.401Z,8.93
2023-01-13T05:17:52.648Z,10.71
2023-01-13T05:20:58.427Z,11.50
2023-01-13T05:24:17.534Z,13.54
2023-01-13T05:27:23.323Z,20.53
2023-01-13T05:30:42.478Z,16.52
2023-01-13T05:33:48.601Z,11.31
2023-01-13T05:36:55.240Z,10.16
2023-01-13T05:40:28.188Z,9.86
2023-01-13T05:43:35.146Z,9.33
2023-01-13T05:46:44.383Z,9.00
2023-01-13T05:49:51.074Z,8.32
2023-01-13T05:52:56.910Z,7.76
2023-01-13T05:56:06.602Z,8.26
2023-01-13T05:59:12.398Z,8.18
2023-01-13T06:02:21.633Z,7.86
2023-01-13T06:05:28.185Z,8.15
2023-01-13T06:08:39.528Z,9.00
2023-01-13T06:11:46.581Z,8.41
2023-01-13T06:14:53.456Z,8.32
2023-01-13T06:18:04.630Z,8.39
2023-01-13T06:21:11.348Z,9.48
2023-01-13T06:24:17.282Z,12.79
2023-01-13T06:27:25.969Z,14.57
2023-01-13T06:30:38.733Z,10.00
2023-01-13T06:33:58.538Z,8.23
2023-01-13T06:37:07.609Z,8.55
2023-01-13T06:40:17.767Z,7.91
2023-01-13T06:43:21.271Z,8.22
2023-01-13T06:46:29.192Z,9.79
2023-01-13T06:49:37.711Z,8.36
2023-01-13T06:52:44.265Z,9.01
2023-01-13T06:55:50.170Z,7.54
2023-01-13T06:58:56.819Z,8.26
2023-01-13T07:02:02.906Z,8.48
2023-01-13T07:05:12.764Z,9.48
2023-01-13T07:08:18.590Z,15.00
2023-01-13T07:11:25.270Z,14.70
2023-01-13T07:14:43.443Z,26.73
2023-01-13T07:17:50.464Z,20.01
2023-01-13T07:21:04.607Z,17.25
2023-01-13T07:24:14.785Z,24.20
2023-01-13T07:27:23.502Z,19.11
2023-01-13T07:30:30.420Z,23.27
2023-01-13T07:33:36.324Z,17.71
2023-01-13T07:36:45.526Z,18.75
2023-01-13T07:39:51.394Z,19.63
2023-01-13T07:43:10.925Z,18.34
2023-01-13T07:46:17.043Z,16.99
2023-01-13T07:49:23.682Z,15.44
2023-01-13T07:52:33.161Z,13.91
2023-01-13T07:55:45.830Z,13.86
2023-01-13T07:58:53.441Z,15.99
2023-01-13T08:02:00.209Z,15.89
2023-01-13T08:05:06.443Z,15.10
2023-01-13T08:08:15.868Z,14.16
2023-01-13T08:11:23.551Z,12.85
2023-01-13T08:14:30.419Z,12.62
2023-01-13T08:17:36.299Z,14.99
2023-01-13T08:20:43.309Z,15.56
2023-01-13T08:23:51.602Z,14.41
2023-01-13T08:26:58.243Z,14.05
2023-01-13T08:30:04.164Z,16.73
2023-01-13T08:33:13.756Z,15.85
2023-01-13T08:36:19.578Z,17.35
2023-01-13T08:39:29.641Z,15.50
2023-01-13T08:42:35.827Z,13.26
2023-01-13T08:45:42.796Z,13.81
2023-01-13T08:48:48.726Z,13.21
2023-01-13T08:51:56.640Z,15.04
2023-01-13T08:55:04.964Z,14.68
2023-01-13T08:58:15.769Z,14.27
2023-01-13T09:01:26.385Z,14.01
2023-01-13T09:04:34.634Z,13.07
2023-01-13T09:07:42.142Z,14.73
2023-01-13T09:10:51.470Z,14.66
2023-01-13T09:13:54.688Z,12.74
2023-01-13T09:17:02.096Z,12.96
2023-01-13T09:20:09.469Z,16.28
2023-01-13T09:23:16.188Z,15.39
2023-01-13T09:26:25.230Z,14.29
2023-01-13T09:29:32.157Z,12.79
2023-01-13T09:32:38.413Z,13.21
2023-01-13T09:35:42.450Z,12.53
2023-01-13T09:38:48.350Z,13.39
2023-01-13T09:42:18.019Z,13.33
2023-01-13T09:45:32.055Z,13.43
2023-01-13T09:48:52.325Z,14.74
2023-01-13T09:52:10.870Z,20.05
2023-01-13T09:55:22.946Z,17.26
2023-01-13T09:58:31.586Z,15.81
2023-01-13T10:01:54.767Z,15.27
2023-01-13T10:05:17.269Z,14.06
2023-01-13T10:08:31.025Z,12.17
2023-01-13T10:11:58.792Z,12.66
2023-01-13T10:15:21.106Z,11.52
2023-01-13T10:18:45.999Z,10.67
2023-01-13T10:22:25.096Z,10.52
2023-01-13T10:25:55.540Z,10.68
2023-01-13T10:29:02.438Z,10.42
2023-01-13T10:32:11.203Z,10.25
2023-01-13T10:35:17.988Z,10.86
2023-01-13T10:38:28.371Z,9.69
2023-01-13T10:41:36.400Z,10.35
2023-01-13T10:44:53.517Z,10.10
2023-01-13T10:48:17.654Z,8.96
2023-01-13T10:51:28.652Z,8.83
2023-01-13T10:54:54.599Z,9.71
2023-01-13T10:58:00.894Z,9.21
2023-01-13T11:01:10.036Z,10.56
2023-01-13T11:04:34.638Z,9.25
2023-01-13T11:07:50.534Z,8.81
2023-01-13T11:11:04.191Z,8.92
2023-01-13T11:14:37.376Z,8.79
2023-01-13T11:18:06.818Z,9.55
2023-01-13T11:21:41.230Z,10.59
2023-01-13T11:25:02.648Z,12.08
2023-01-13T11:28:38.744Z,11.26
2023-01-13T11:32:14.756Z,11.95
2023-01-13T11:35:30.627Z,13.46
2023-01-13T11:39:01.011Z,12.54
2023-01-13T11:42:30.020Z,11.59
2023-01-13T11:45:49.207Z,10.77
2023-01-13T11:49:09.319Z,10.85
2023-01-13T11:52:54.526Z,10.73
2023-01-13T11:56:30.077Z,11.89
2023-01-13T12:00:30.872Z,13.51
2023-01-13T12:03:54.304Z,13.60
2023-01-13T12:07:24.066Z,13.07
2023-01-13T12:10:57.485Z,16.93
2023-01-13T12:14:30.998Z,16.84
2023-01-13T12:18:04.905Z,12.92
2023-01-13T12:21:32.304Z,12.51
2023-01-13T12:24:59.229Z,12.54
2023-01-13T12:28:16.159Z,13.64
2023-01-13T12:31:53.158Z,13.92
2023-01-13T12:35:36.613Z,16.14
2023-01-13T12:39:01.162Z,14.88
2023-01-13T12:42:34.540Z,12.33
2023-01-13T12:45:50.712Z,13.33
2023-01-13T12:49:23.072Z,13.90
2023-01-13T12:52:49.871Z,14.04
2023-01-13T12:56:18.100Z,16.63
2023-01-13T12:59:53.099Z,15.84
2023-01-13T13:03:37.544Z,16.27
2023-01-13T13:07:11.388Z,15.25
2023-01-13T13:10:35.426Z,12.07
2023-01-13T13:13:53.156Z,12.17
2023-01-13T13:17:50.638Z,13.32
2023-01-13T13:21:13.421Z,15.73
2023-01-13T13:24:33.133Z,13.97
2023-01-13T13:28:20.936Z,12.83
2023-01-13T13:32:36.452Z,14.52
2023-01-13T13:36:14.313Z,17.44
2023-01-13T13:39:44.735Z,28.92
2023-01-13T13:43:14.291Z,26.67
2023-01-13T13:46:50.197Z,17.95
2023-01-13T13:50:01.380Z,24.64
2023-01-13T13:53:12.330Z,31.98
2023-01-13T13:56:38.790Z,24.69
2023-01-13T14:00:01.437Z,19.39
2023-01-13T14:03:35.012Z,16.03
2023-01-13T14:06:53.379Z,13.96
2023-01-13T14:10:20.004Z,15.20
2023-01-13T14:13:34.595Z,15.02
2023-01-13T14:16:56.410Z,15.04
2023-01-13T14:20:09.953Z,14.84
2023-01-13T14:23:33.955Z,13.75
2023-01-13T14:26:46.675Z,14.41
2023-01-13T14:30:04.620Z,14.50
2023-01-13T14:33:26.338Z,14.56
2023-01-13T14:36:42.321Z,15.51
2023-01-13T14:39:51.730Z,17.28
2023-01-13T14:43:16.276Z,16.95
2023-01-13T14:46:41.000Z,16.70
2023-01-13T14:50:19.170Z,16.46
2023-01-13T14:53:44.051Z,17.57
2023-01-13T14:57:16.288Z,16.28
2023-01-13T15:00:31.214Z,35.72
2023-01-13T15:03:51.382Z,501.02
2023-01-13T15:07:06.080Z,442.08
2023-01-13T15:10:27.049Z,352.42
2023-01-13T15:13:52.848Z,379.03
2023-01-13T15:17:17.201Z,69.67
2023-01-13T15:20:37.201Z,107.82
2023-01-13T15:23:47.951Z,183.68
2023-01-13T15:26:57.075Z,73.16
2023-01-13T15:30:10.235Z,21.06
2023-01-13T15:33:22.689Z,25.96
2023-01-13T15:36:38.516Z,377.92
2023-01-13T15:39:47.557Z,2116.46
2023-01-13T15:43:09.427Z,3189.62
2023-01-13T15:46:41.853Z,870.32
2023-01-13T15:49:52.591Z,14.78
2023-01-13T15:53:10.631Z,28.84
2023-01-13T15:56:30.247Z,445.07
2023-01-13T15:59:47.428Z,18.29
2023-01-13T16:03:00.344Z,10.06
2023-01-13T16:06:33.403Z,10.68
2023-01-13T16:09:46.430Z,8.85
2023-01-13T16:13:02.331Z,11.75
2023-01-13T16:16:25.563Z,15.82
2023-01-13T16:19:35.207Z,10.80
2023-01-13T16:22:46.303Z,8.73
2023-01-13T16:25:56.370Z,30.76
2023-01-13T16:29:04.925Z,40.85
2023-01-13T16:32:12.425Z,18.30
2023-01-13T16:35:22.010Z,12.06
2023-01-13T16:38:29.274Z,9.79
2023-01-13T16:41:46.020Z,10.07
2023-01-13T16:45:02.079Z,9.90
2023-01-13T16:48:24.008Z,8.44
2023-01-13T16:51:32.224Z,14.87
2023-01-13T16:54:41.323Z,9.91
2023-01-13T16:57:52.465Z,9.86
2023-01-13T17:01:05.523Z,11.20
2023-01-13T17:04:27.334Z,12.37
2023-01-13T17:07:36.805Z,10.43
2023-01-13T17:10:52.015Z,9.79
2023-01-13T17:14:18.231Z,11.30
2023-01-13T17:17:36.809Z,11.05
2023-01-13T17:20:51.959Z,11.71
2023-01-13T17:24:06.339Z,11.56
2023-01-13T17:27:18.841Z,14.03
2023-01-13T17:30:35.425Z,13.38
2023-01-13T17:33:47.470Z,12.48
2023-01-13T17:37:01.938Z,14.12
2023-01-13T17:40:19.499Z,147.01
2023-01-13T17:43:32.284Z,1318.00
2023-01-13T17:46:51.825Z,1379.35
2023-01-13T17:50:07.267Z,629.92
2023-01-13T17:53:24.654Z,89.52
2023-01-13T17:56:38.139Z,27.81
2023-01-13T17:59:48.424Z,18.62
2023-01-13T18:03:03.739Z,13.29
2023-01-13T18:06:26.073Z,15.34
2023-01-13T18:09:38.342Z,18.47
2023-01-13T18:12:48.156Z,19.48
2023-01-13T18:16:02.657Z,25.49
2023-01-13T18:19:26.265Z,24.21
2023-01-13T18:22:53.309Z,17.35
2023-01-13T18:26:12.175Z,15.91
2023-01-13T18:29:18.610Z,18.42
2023-01-13T18:32:32.929Z,16.63
2023-01-13T18:35:44.045Z,18.69
2023-01-13T18:38:53.361Z,19.14
2023-01-13T18:42:11.475Z,20.23
2023-01-13T18:45:18.300Z,23.01
2023-01-13T18:48:23.986Z,26.38
2023-01-13T18:51:33.314Z,28.08
2023-01-13T18:54:39.498Z,28.75
2023-01-13T18:57:46.209Z,26.39
2023-01-13T19:00:53.395Z,26.67
2023-01-13T19:04:02.664Z,24.45
2023-01-13T19:07:12.725Z,23.38
2023-01-13T19:10:20.930Z,25.95
2023-01-13T19:13:26.746Z,25.90
2023-01-13T19:16:34.970Z,24.03
2023-01-13T19:19:45.405Z,22.16
2023-01-13T19:22:55.470Z,21.69
2023-01-13T19:26:04.389Z,20.93
2023-01-13T19:29:13.848Z,19.50
2023-01-13T19:32:20.999Z,17.92
2023-01-13T19:35:28.973Z,19.55
2023-01-13T19:38:40.767Z,18.02
2023-01-13T19:41:59.780Z,17.24
2023-01-13T19:45:18.090Z,16.80
2023-01-13T19:48:24.817Z,16.56
2023-01-13T19:51:30.846Z,16.08
2023-01-13T19:54:40.284Z,16.18
2023-01-13T19:57:46.237Z,15.66
2023-01-13T20:00:54.362Z,15.64
2023-01-13T20:04:03.387Z,16.07
2023-01-13T20:07:11.382Z,16.79
2023-01-13T20:10:26.175Z,18.66
2023-01-13T20:13:36.061Z,18.49
2023-01-13T20:16:41.935Z,20.09
2023-01-13T20:19:48.913Z,18.83
2023-01-13T20:22:55.066Z,21.39
2023-01-13T20:26:06.838Z,24.86
2023-01-13T20:29:13.837Z,30.14
2023-01-13T20:32:20.715Z,30.26
2023-01-13T20:35:29.829Z,21.94
2023-01-13T20:38:39.917Z,19.86
2023-01-13T20:42:01.825Z,29.10
2023-01-13T20:45:12.741Z,20.51
2023-01-13T20:48:18.731Z,19.60
2023-01-13T20:51:26.417Z,19.49
2023-01-13T20:54:32.362Z,19.65
2023-01-13T20:57:48.599Z,18.94
2023-01-13T21:00:54.643Z,18.69
2023-01-13T21:04:03.006Z,18.41
2023-01-13T21:07:11.916Z,19.88
2023-01-13T21:10:19.177Z,18.63
2023-01-13T21:13:40.148Z,18.48
2023-01-13T21:16:46.884Z,18.93
2023-01-13T21:19:50.707Z,18.72
2023-01-13T21:22:58.781Z,18.78
2023-01-13T21:26:05.109Z,19.01
2023-01-13T21:29:14.384Z,19.28
2023-01-13T21:32:20.183Z,19.56
2023-01-13T21:35:26.960Z,20.36
2023-01-13T21:38:32.775Z,19.43
2023-01-13T21:41:51.780Z,18.89
2023-01-13T21:45:14.551Z,20.04
2023-01-13T21:48:21.211Z,19.03
2023-01-13T21:51:27.019Z,18.44
2023-01-13T21:54:33.881Z,18.69
2023-01-13T21:57:40.877Z,19.24
2023-01-13T22:00:50.229Z,19.32
2023-01-13T22:04:08.330Z,19.67
2023-01-13T22:07:16.257Z,20.17
2023-01-13T22:10:25.510Z,19.99
2023-01-13T22:13:44.370Z,19.33
2023-01-13T22:16:53.765Z,18.88
2023-01-13T22:20:01.579Z,18.42
2023-01-13T22:23:07.341Z,18.57
2023-01-13T22:26:15.209Z,18.07
2023-01-13T22:29:21.196Z,18.03
2023-01-13T22:32:30.468Z,18.27
2023-01-13T22:35:36.223Z,18.05
2023-01-13T22:38:43.770Z,17.68
2023-01-13T22:41:50.663Z,17.15
2023-01-13T22:44:57.492Z,17.59
2023-01-13T22:48:05.817Z,16.91
2023-01-13T22:51:15.817Z,16.13
2023-01-13T22:54:22.415Z,16.10
2023-01-13T22:57:35.607Z,16.80
2023-01-13T23:00:42.076Z,16.43
2023-01-13T23:03:54.122Z,16.75
2023-01-13T23:07:00.264Z,17.07
2023-01-13T23:10:10.226Z,17.67
2023-01-13T23:13:15.972Z,17.56
2023-01-13T23:16:24.275Z,17.96
2023-01-13T23:19:32.706Z,16.44
2023-01-13T23:22:40.922Z,16.20
2023-01-13T23:25:53.672Z,16.04
2023-01-13T23:29:06.901Z,16.16
2023-01-13T23:32:12.793Z,15.34
2023-01-13T23:35:22.167Z,14.77
2023-01-13T23:38:29.543Z,14.94
2023-01-13T23:41:36.192Z,14.81
2023-01-13T23:44:42.066Z,14.42
2023-01-13T23:47:48.648Z,14.79
2023-01-13T23:51:07.823Z,14.63
2023-01-13T23:54:14.571Z,14.98
2023-01-13T23:57:20.408Z,14.68
